Time,TemperatureF,DewpointF,PressureIn,WindDirection,WindDirectionDegrees,WindSpeedMPH,WindSpeedGustMPH,Humidity,HourlyPrecipIn,Conditions,Clouds,dailyrainin,SoftwareType,DateUTC
2013-04-29 00:03:00,56.0,54.0,-100.00,East,90,2.0,5.0,93,0.04,,,1.23,,2013-04-29 04:03:00,
2013-04-29 00:13:00,56.0,54.0,-100.00,East,90,2.0,5.0,93,0.04,,,1.23,,2013-04-29 04:13:00,
2013-04-29 00:43:00,55.0,54.0,-100.00,North,350,1.0,4.0,97,0.02,,,1.19,,2013-04-29 04:43:00,
2013-04-29 00:52:00,55.0,54.0,-100.00,North,350,1.0,4.0,97,0.02,,,1.19,,2013-04-29 04:52:00,
2013-04-29 01:02:00,55.0,54.0,-100.00,North,350,1.0,4.0,97,0.02,,,1.19,,2013-04-29 05:02:00,
2013-04-29 01:12:00,55.0,54.0,-100.00,North,350,1.0,4.0,97,0.02,,,1.19,,2013-04-29 05:12:00,
2013-04-29 01:42:00,55.0,54.0,-100.00,SE,141,1.0,3.0,98,0.00,,,0.91,,2013-04-29 05:42:00,
2013-04-29 01:52:00,55.0,54.0,-100.00,SE,141,1.0,3.0,98,0.00,,,0.91,,2013-04-29 05:52:00,
2013-04-29 02:02:00,55.0,54.0,-100.00,SE,141,1.0,3.0,98,0.00,,,0.91,,2013-04-29 06:02:00,
2013-04-29 02:12:00,55.0,54.0,-100.00,SE,141,1.0,3.0,98,0.00,,,0.91,,2013-04-29 06:12:00,
2013-04-29 02:42:00,54.0,53.0,-100.00,WSW,245,1.0,4.0,98,0.00,,,0.70,,2013-04-29 06:42:00,
2013-04-29 02:52:00,54.0,53.0,-100.00,WSW,245,1.0,4.0,98,0.00,,,0.70,,2013-04-29 06:52:00,
2013-04-29 03:02:00,54.0,53.0,-100.00,WSW,245,1.0,4.0,98,0.00,,,0.70,,2013-04-29 07:02:00,
2013-04-29 03:11:00,54.0,53.0,-100.00,WSW,245,1.0,4.0,98,0.00,,,0.70,,2013-04-29 07:11:00,
2013-04-29 03:42:00,54.0,53.0,-100.00,NNW,339,1.0,3.0,98,0.00,,,0.48,,2013-04-29 07:42:00,
2013-04-29 03:52:00,54.0,53.0,-100.00,NNW,339,1.0,3.0,98,0.00,,,0.48,,2013-04-29 07:52:00,
2013-04-29 04:03:00,54.0,53.0,-100.00,NNW,339,1.0,3.0,98,0.00,,,0.48,,2013-04-29 08:03:00,
2013-04-29 04:11:00,54.0,53.0,-100.00,NNW,339,1.0,3.0,98,0.00,,,0.48,,2013-04-29 08:11:00,
2013-04-29 04:42:00,54.0,53.0,-100.00,NNW,344,1.0,3.0,98,0.00,,,0.28,,2013-04-29 08:42:00,
2013-04-29 04:52:00,54.0,53.0,-100.00,NNW,344,1.0,3.0,98,0.00,,,0.28,,2013-04-29 08:52:00,
2013-04-29 05:01:00,54.0,53.0,-100.00,NNW,344,1.0,3.0,98,0.00,,,0.28,,2013-04-29 09:01:00,
2013-04-29 05:12:00,54.0,53.0,-100.00,NNW,344,1.0,3.0,98,0.00,,,0.28,,2013-04-29 09:12:00,
2013-04-29 05:42:00,55.0,54.0,-100.00,East,91,1.0,3.0,98,0.03,,,0.16,,2013-04-29 09:42:00,
2013-04-29 05:53:00,55.0,54.0,-100.00,East,91,1.0,3.0,98,0.03,,,0.16,,2013-04-29 09:53:00,
2013-04-29 06:02:00,55.0,54.0,-100.00,East,91,1.0,3.0,98,0.03,,,0.16,,2013-04-29 10:02:00,
2013-04-29 06:12:00,55.0,54.0,-100.00,East,91,1.0,3.0,98,0.03,,,0.16,,2013-04-29 10:12:00,
2013-04-29 06:42:00,54.0,54.0,-100.00,North,358,0.0,3.0,99,0.00,,,0.12,,2013-04-29 10:42:00,
2013-04-29 06:52:00,54.0,54.0,-100.00,North,358,0.0,3.0,99,0.00,,,0.12,,2013-04-29 10:52:00,
2013-04-29 07:03:00,54.0,54.0,-100.00,North,358,0.0,3.0,99,0.00,,,0.12,,2013-04-29 11:03:00,
2013-04-29 07:12:00,54.0,54.0,-100.00,North,358,0.0,3.0,99,0.00,,,0.12,,2013-04-29 11:12:00,
2013-04-29 07:42:00,54.0,54.0,-100.00,West,280,0.0,0.0,99,0.00,,,0.12,,2013-04-29 11:42:00,
2013-04-29 07:52:00,54.0,54.0,-100.00,West,280,0.0,0.0,99,0.00,,,0.12,,2013-04-29 11:52:00,
2013-04-29 08:01:00,54.0,54.0,-100.00,West,280,0.0,0.0,99,0.00,,,0.12,,2013-04-29 12:01:00,
2013-04-29 08:12:00,54.0,54.0,-100.00,West,280,0.0,0.0,99,0.00,,,0.12,,2013-04-29 12:12:00,
2013-04-29 08:42:00,55.0,55.0,-100.00,West,263,0.0,2.0,99,0.00,,,0.12,,2013-04-29 12:42:00,
2013-04-29 08:52:00,55.0,55.0,-100.00,West,263,0.0,2.0,99,0.00,,,0.12,,2013-04-29 12:52:00,
2013-04-29 09:01:00,55.0,55.0,-100.00,West,263,0.0,2.0,99,0.00,,,0.12,,2013-04-29 13:01:00,
2013-04-29 09:11:00,55.0,55.0,-100.00,West,263,0.0,2.0,99,0.00,,,0.12,,2013-04-29 13:11:00,
2013-04-29 09:42:00,57.0,55.0,-100.00,West,268,2.0,6.0,93,0.00,,,0.12,,2013-04-29 13:42:00,
2013-04-29 09:52:00,57.0,55.0,-100.00,West,268,2.0,6.0,93,0.00,,,0.12,,2013-04-29 13:52:00,
2013-04-29 10:02:00,57.0,55.0,-100.00,West,268,2.0,6.0,93,0.00,,,0.12,,2013-04-29 14:02:00,
2013-04-29 10:12:00,57.0,55.0,-100.00,West,268,2.0,6.0,93,0.00,,,0.12,,2013-04-29 14:12:00,
2013-04-29 10:42:00,61.0,55.0,-100.00,SW,223,3.0,6.0,81,0.00,,,0.10,,2013-04-29 14:42:00,
2013-04-29 10:52:00,61.0,55.0,-100.00,SW,223,3.0,6.0,81,0.00,,,0.10,,2013-04-29 14:52:00,
2013-04-29 11:01:00,61.0,55.0,-100.00,SW,223,3.0,6.0,81,0.00,,,0.10,,2013-04-29 15:01:00,
2013-04-29 11:12:00,61.0,55.0,-100.00,SW,223,3.0,6.0,81,0.00,,,0.10,,2013-04-29 15:12:00,
2013-04-29 11:43:00,61.0,52.0,-100.00,NNE,21,3.0,8.0,72,0.00,,,0.09,,2013-04-29 15:43:00,
2013-04-29 11:53:00,61.0,52.0,-100.00,NNE,21,3.0,8.0,72,0.00,,,0.09,,2013-04-29 15:53:00,
2013-04-29 12:03:00,61.0,52.0,-100.00,NNE,21,3.0,8.0,72,0.00,,,0.09,,2013-04-29 16:03:00,
2013-04-29 12:13:00,61.0,52.0,-100.00,NNE,21,3.0,8.0,72,0.00,,,0.09,,2013-04-29 16:13:00,
2013-04-29 12:42:00,62.0,52.0,-100.00,West,264,2.0,9.0,69,0.00,,,0.09,,2013-04-29 16:42:00,
2013-04-29 12:52:00,62.0,52.0,-100.00,West,264,2.0,9.0,69,0.00,,,0.09,,2013-04-29 16:52:00,
2013-04-29 13:02:00,62.0,52.0,-100.00,West,264,2.0,9.0,69,0.00,,,0.09,,2013-04-29 17:02:00,
2013-04-29 13:12:00,62.0,52.0,-100.00,West,264,2.0,9.0,69,0.00,,,0.09,,2013-04-29 17:12:00,
2013-04-29 13:42:00,61.0,50.0,-100.00,West,279,2.0,7.0,68,0.00,,,0.09,,2013-04-29 17:42:00,
2013-04-29 13:52:00,61.0,50.0,-100.00,West,279,2.0,7.0,68,0.00,,,0.09,,2013-04-29 17:52:00,
2013-04-29 14:01:00,61.0,50.0,-100.00,West,279,2.0,7.0,68,0.00,,,0.09,,2013-04-29 18:01:00,
2013-04-29 14:13:00,61.0,50.0,-100.00,West,279,2.0,7.0,68,0.00,,,0.09,,2013-04-29 18:13:00,
2013-04-29 14:42:00,62.0,51.0,-100.00,WSW,254,2.0,6.0,67,0.00,,,0.09,,2013-04-29 18:42:00,
2013-04-29 14:52:00,62.0,51.0,-100.00,WSW,254,2.0,6.0,67,0.00,,,0.09,,2013-04-29 18:52:00,
2013-04-29 15:01:00,62.0,51.0,-100.00,WSW,254,2.0,6.0,67,0.00,,,0.09,,2013-04-29 19:01:00,
2013-04-29 15:12:00,62.0,51.0,-100.00,WSW,254,2.0,6.0,67,0.00,,,0.09,,2013-04-29 19:12:00,
2013-04-29 15:42:00,63.0,51.0,-100.00,ENE,64,2.0,5.0,66,0.00,,,0.09,,2013-04-29 19:42:00,
2013-04-29 15:52:00,63.0,51.0,-100.00,ENE,64,2.0,5.0,66,0.00,,,0.09,,2013-04-29 19:52:00,
2013-04-29 16:02:00,63.0,51.0,-100.00,ENE,64,2.0,5.0,66,0.00,,,0.09,,2013-04-29 20:02:00,
2013-04-29 16:12:00,63.0,51.0,-100.00,ENE,64,2.0,5.0,66,0.00,,,0.09,,2013-04-29 20:12:00,
2013-04-29 16:43:00,63.0,51.0,-100.00,SSW,203,2.0,5.0,64,0.00,,,0.09,,2013-04-29 20:43:00,
2013-04-29 16:52:00,63.0,51.0,-100.00,SSW,203,2.0,5.0,64,0.00,,,0.09,,2013-04-29 20:52:00,
2013-04-29 17:02:00,63.0,51.0,-100.00,SSW,203,2.0,5.0,64,0.00,,,0.09,,2013-04-29 21:02:00,
2013-04-29 17:11:00,63.0,51.0,-100.00,SSW,203,2.0,5.0,64,0.00,,,0.09,,2013-04-29 21:11:00,
2013-04-29 17:43:00,68.0,54.0,-100.00,WSW,257,4.0,7.0,60,0.00,,,0.09,,2013-04-29 21:43:00,
2013-04-29 17:53:00,68.0,54.0,-100.00,WSW,257,4.0,7.0,60,0.00,,,0.09,,2013-04-29 21:53:00,
2013-04-29 18:02:00,68.0,54.0,-100.00,WSW,257,4.0,7.0,60,0.00,,,0.09,,2013-04-29 22:02:00,
2013-04-29 18:13:00,68.0,54.0,-100.00,WSW,257,4.0,7.0,60,0.00,,,0.09,,2013-04-29 22:13:00,
2013-04-29 18:42:00,69.0,53.0,-100.00,ESE,113,1.0,8.0,56,0.00,,,0.09,,2013-04-29 22:42:00,
2013-04-29 18:53:00,69.0,53.0,-100.00,ESE,113,1.0,8.0,56,0.00,,,0.09,,2013-04-29 22:53:00,
2013-04-29 19:02:00,69.0,53.0,-100.00,ESE,113,1.0,8.0,56,0.00,,,0.09,,2013-04-29 23:02:00,
2013-04-29 19:12:00,69.0,53.0,-100.00,ESE,113,1.0,8.0,56,0.00,,,0.09,,2013-04-29 23:12:00,
2013-04-29 19:42:00,63.0,47.0,-100.00,ENE,61,1.0,7.0,56,0.00,,,0.09,,2013-04-29 23:42:00,
2013-04-29 19:53:00,63.0,47.0,-100.00,ENE,61,1.0,7.0,56,0.00,,,0.09,,2013-04-29 23:53:00,
2013-04-29 20:01:00,63.0,47.0,-100.00,ENE,61,1.0,7.0,56,0.00,,,0.09,,2013-04-30 00:01:00,
2013-04-29 20:11:00,63.0,47.0,-100.00,ENE,61,1.0,7.0,56,0.00,,,0.09,,2013-04-30 00:11:00,
2013-04-29 20:42:00,57.0,51.0,-100.00,NE,54,0.0,2.0,80,0.00,,,0.09,,2013-04-30 00:42:00,
2013-04-29 20:52:00,57.0,51.0,-100.00,NE,54,0.0,2.0,80,0.00,,,0.09,,2013-04-30 00:52:00,
2013-04-29 21:02:00,57.0,51.0,-100.00,NE,54,0.0,2.0,80,0.00,,,0.09,,2013-04-30 01:02:00,
2013-04-29 21:11:00,57.0,51.0,-100.00,NE,54,0.0,2.0,80,0.00,,,0.09,,2013-04-30 01:11:00,
2013-04-29 21:42:00,53.0,51.0,-100.00,ENE,67,0.0,0.0,92,0.00,,,0.09,,2013-04-30 01:42:00,
2013-04-29 21:52:00,53.0,51.0,-100.00,ENE,67,0.0,0.0,92,0.00,,,0.09,,2013-04-30 01:52:00,
2013-04-29 22:01:00,53.0,51.0,-100.00,ENE,67,0.0,0.0,92,0.00,,,0.09,,2013-04-30 02:01:00,
2013-04-29 22:11:00,53.0,51.0,-100.00,ENE,67,0.0,0.0,92,0.00,,,0.09,,2013-04-30 02:11:00,
2013-04-29 22:52:00,51.0,50.0,-100.00,NNE,31,0.0,0.0,96,0.00,,,0.09,,2013-04-30 02:52:00,
2013-04-29 23:01:00,51.0,50.0,-100.00,NNE,31,0.0,0.0,96,0.00,,,0.09,,2013-04-30 03:01:00,
2013-04-29 23:11:00,51.0,50.0,-100.00,NNE,31,0.0,0.0,96,0.00,,,0.09,,2013-04-30 03:11:00,